Terminal Aerodrome Forecast
Issued by NWS

Home | Current Version | Previous Version | Text Only | Print | Product List | Glossary On
Versions: 1 2 3 4 5 6 7 8 9 10 11 12 13 14 15 16 17 18 19 20 21 22 23 24 25 26 27 28 29 30 31 32
000
FTUS43 KAPX 041845 AAA
TAFAPN
TAF AMD
KAPN 041845Z 0419/0518 11009KT P6SM SCT100
     FM042200 09009KT P6SM VCSH BKN035
     FM050100 12005KT 5SM -SHRA OVC050
     FM050300 12003KT P6SM BKN050
     FM050900 00000KT 2SM BR BKN002
     FM051300 17004KT P6SM BKN015=

USA.gov is the U.S. government's official web portal to all federal, state and local government web resources and services.